createdAt,value
2019-05-10T00:00:27.206Z,99375.59
2019-05-10T00:01:49.427Z,99372.09
2019-05-10T00:03:11.508Z,99370.78
2019-05-10T00:04:33.883Z,99370.78
2019-05-10T00:05:55.905Z,99371.39
2019-05-10T00:07:18.378Z,99375.64
2019-05-10T00:08:40.947Z,99358.24
2019-05-10T00:09:44.631Z,99377.97
2019-05-10T00:10:50.881Z,99390.20
2019-05-10T00:11:58.379Z,99377.11
2019-05-10T00:13:10.184Z,99385.56
2019-05-10T00:14:16.255Z,99377.77
2019-05-10T00:15:22.392Z,99381.77
2019-05-10T00:16:27.024Z,99384.46
2019-05-10T00:17:31.453Z,99382.85
2019-05-10T00:18:36.089Z,99384.11
2019-05-10T00:19:40.535Z,99384.11
2019-05-10T00:20:45.158Z,99385.00
2019-05-10T00:21:49.599Z,99395.86
2019-05-10T00:22:55.294Z,99364.52
2019-05-10T00:23:59.748Z,99385.45
2019-05-10T00:25:06.860Z,99385.45
2019-05-10T00:26:12.985Z,99385.45
2019-05-10T00:27:17.739Z,99392.37
2019-05-10T00:28:22.174Z,99393.30
2019-05-10T00:29:27.886Z,99393.83
2019-05-10T00:30:32.320Z,99375.27
2019-05-10T00:31:37.013Z,99393.01
2019-05-10T00:32:41.450Z,99392.63
2019-05-10T00:33:46.129Z,99393.93
2019-05-10T00:34:50.569Z,99396.94
2019-05-10T00:35:55.188Z,99400.80
2019-05-10T00:36:59.623Z,99404.28
2019-05-10T00:38:04.316Z,99400.80
2019-05-10T00:39:08.842Z,99402.10
2019-05-10T00:40:13.467Z,99404.22
2019-05-10T00:41:17.902Z,99386.95
2019-05-10T00:42:22.533Z,99404.28
2019-05-10T00:43:26.974Z,99395.19
2019-05-10T00:44:32.973Z,99381.41
2019-05-10T00:45:38.381Z,99406.18
2019-05-10T00:46:43.014Z,99401.50
2019-05-10T00:47:47.461Z,99401.80
2019-05-10T00:48:52.080Z,99388.16
2019-05-10T00:49:56.538Z,99388.16
2019-05-10T00:51:01.501Z,99401.36
2019-05-10T00:52:06.301Z,99387.66
2019-05-10T00:53:10.918Z,99405.73
2019-05-10T00:54:15.376Z,99407.49
2019-05-10T00:55:20.022Z,99406.23
2019-05-10T00:56:24.440Z,99413.09
2019-05-10T00:57:29.053Z,99410.84
2019-05-10T00:58:33.786Z,99409.16
2019-05-10T00:59:38.718Z,99407.85
2019-05-10T01:00:43.151Z,99408.80
2019-05-10T01:01:47.781Z,99420.41
2019-05-10T01:02:52.215Z,99416.02
2019-05-10T01:03:56.849Z,99417.13
2019-05-10T01:05:01.291Z,99399.54
2019-05-10T01:06:05.935Z,99421.48
2019-05-10T01:07:10.362Z,99424.80
2019-05-10T01:08:14.984Z,99415.23
2019-05-10T01:09:19.568Z,99416.83
2019-05-10T01:10:24.211Z,99419.85
2019-05-10T01:11:28.705Z,99424.63
2019-05-10T01:12:33.321Z,99417.28
2019-05-10T01:13:37.763Z,99423.39
2019-05-10T01:14:42.689Z,99421.52
2019-05-10T01:15:47.115Z,99426.52
2019-05-10T01:16:51.744Z,99425.36
2019-05-10T01:17:57.464Z,99427.08
2019-05-10T01:19:02.492Z,99422.38
2019-05-10T01:20:08.567Z,99420.83
2019-05-10T01:21:13.563Z,99410.41
2019-05-10T01:22:18.077Z,99410.41
2019-05-10T01:23:22.692Z,99421.70
2019-05-10T01:24:27.515Z,99422.09
2019-05-10T01:25:35.621Z,99421.59
2019-05-10T01:26:38.665Z,99421.59
2019-05-10T01:27:43.286Z,99388.20
2019-05-10T01:28:48.016Z,99411.06
2019-05-10T01:29:52.661Z,99415.95
2019-05-10T01:30:57.105Z,99407.28
2019-05-10T01:32:01.799Z,99419.41
2019-05-10T01:33:06.233Z,99422.02
2019-05-10T01:34:10.859Z,99421.50
2019-05-10T01:35:15.321Z,99423.11
2019-05-10T01:36:22.993Z,99424.21
2019-05-10T01:37:27.804Z,99421.94
2019-05-10T01:38:32.423Z,99428.06
2019-05-10T01:39:36.874Z,99426.69
2019-05-10T01:40:41.549Z,99425.81
2019-05-10T01:41:46.014Z,99440.52
2019-05-10T01:42:50.632Z,99431.56
2019-05-10T01:43:55.077Z,99440.31
2019-05-10T01:45:00.009Z,99431.98
2019-05-10T01:46:04.728Z,99436.43
2019-05-10T01:47:09.685Z,99437.23
2019-05-10T01:48:14.468Z,99429.16
2019-05-10T01:49:19.088Z,99436.43
2019-05-10T01:50:23.843Z,99433.65
2019-05-10T01:51:28.788Z,99435.50
2019-05-10T01:52:33.190Z,99437.23
2019-05-10T01:53:37.806Z,99437.23
2019-05-10T01:54:42.244Z,99434.19
2019-05-10T01:55:52.283Z,99434.61
2019-05-10T01:56:53.021Z,99433.08
2019-05-10T01:57:57.653Z,99430.36
2019-05-10T01:59:02.095Z,99429.94
2019-05-10T02:00:09.050Z,99431.16
2019-05-10T02:01:13.557Z,99434.55
2019-05-10T02:02:18.182Z,99434.11
2019-05-10T02:03:22.623Z,99429.37
2019-05-10T02:04:28.231Z,99435.94
2019-05-10T02:05:33.017Z,99437.19
2019-05-10T02:06:37.660Z,99435.10
2019-05-10T02:07:42.100Z,99431.09
2019-05-10T02:08:46.730Z,99433.22
2019-05-10T02:09:51.186Z,99435.42
2019-05-10T02:10:55.828Z,99434.20
2019-05-10T02:12:00.266Z,99435.94
2019-05-10T02:13:04.890Z,99433.25
2019-05-10T02:14:10.612Z,99437.09
2019-05-10T02:15:15.599Z,99431.39
2019-05-10T02:16:20.039Z,99434.02
2019-05-10T02:17:25.015Z,99432.58
2019-05-10T02:18:29.460Z,99431.16
2019-05-10T02:19:34.088Z,99433.80
2019-05-10T02:20:38.549Z,99425.20
2019-05-10T02:21:43.205Z,99438.79
2019-05-10T02:22:47.619Z,99432.45
2019-05-10T02:23:52.245Z,99435.62
2019-05-10T02:24:56.689Z,99431.16
2019-05-10T02:26:09.446Z,99437.73
2019-05-10T02:27:07.469Z,99440.81
2019-05-10T02:28:12.094Z,99436.80
2019-05-10T02:29:16.536Z,99430.59
2019-05-10T02:30:21.185Z,99433.28
2019-05-10T02:31:25.696Z,99439.43
2019-05-10T02:32:30.627Z,99441.61
2019-05-10T02:33:35.064Z,99438.44
2019-05-10T02:34:39.705Z,99448.95
2019-05-10T02:35:44.169Z,99440.14
2019-05-10T02:36:48.787Z,99445.01
2019-05-10T02:37:53.736Z,99448.95
2019-05-10T02:38:58.337Z,99446.70
2019-05-10T02:40:03.067Z,99451.45
2019-05-10T02:41:08.079Z,99445.30
2019-05-10T02:42:12.525Z,99451.00
2019-05-10T02:43:17.152Z,99457.63
2019-05-10T02:44:21.917Z,99462.38
2019-05-10T02:45:26.559Z,99458.44
2019-05-10T02:46:31.024Z,99447.06
2019-05-10T02:47:36.597Z,99456.25
2019-05-10T02:48:41.031Z,99459.33
2019-05-10T02:49:45.654Z,99457.05
2019-05-10T02:50:50.766Z,99454.56
2019-05-10T02:51:55.396Z,99462.44
2019-05-10T02:52:59.840Z,99448.79
2019-05-10T02:54:05.602Z,99456.25
2019-05-10T02:55:10.187Z,99463.27
2019-05-10T02:56:29.780Z,99461.41
2019-05-10T02:57:22.420Z,99458.82
2019-05-10T02:58:27.787Z,99459.30
2019-05-10T02:59:34.742Z,99458.38
2019-05-10T03:00:41.485Z,99457.50
2019-05-10T03:01:46.500Z,99462.02
2019-05-10T03:02:53.059Z,99461.13
2019-05-10T03:04:00.551Z,99463.08
2019-05-10T03:05:06.813Z,99465.70
2019-05-10T03:06:14.321Z,99461.89
2019-05-10T03:07:20.465Z,99459.91
2019-05-10T03:08:25.445Z,99461.22
2019-05-10T03:09:32.223Z,99466.70
2019-05-10T03:10:38.613Z,99463.27
2019-05-10T03:11:49.220Z,99468.37
2019-05-10T03:12:57.439Z,99473.23
2019-05-10T03:14:05.121Z,99478.37
2019-05-10T03:15:11.604Z,99473.59
2019-05-10T03:16:19.307Z,99474.91
2019-05-10T03:17:24.783Z,99477.12
2019-05-10T03:18:31.639Z,99476.55
2019-05-10T03:19:37.148Z,99479.14
2019-05-10T03:20:42.431Z,99475.06
2019-05-10T03:21:49.928Z,99477.76
2019-05-10T03:22:55.581Z,99475.26
2019-05-10T03:24:00.025Z,99478.08
2019-05-10T03:25:05.897Z,99478.30
2019-05-10T03:26:10.366Z,99480.48
2019-05-10T03:27:14.986Z,99485.28
2019-05-10T03:28:19.430Z,99481.79
2019-05-10T03:29:24.060Z,99487.85
2019-05-10T03:30:28.514Z,99488.72
2019-05-10T03:31:33.219Z,99489.13
2019-05-10T03:32:37.784Z,99493.08
2019-05-10T03:33:42.559Z,99494.42
2019-05-10T03:34:47.889Z,99492.21
2019-05-10T03:35:52.597Z,99491.44
2019-05-10T03:36:57.233Z,99495.90
2019-05-10T03:38:02.226Z,99495.87
2019-05-10T03:39:07.205Z,99491.06
2019-05-10T03:40:12.501Z,99492.72
2019-05-10T03:41:16.946Z,99493.23
2019-05-10T03:42:21.605Z,99491.83
2019-05-10T03:43:26.042Z,99497.31
2019-05-10T03:44:30.666Z,99496.80
2019-05-10T03:45:35.103Z,99488.81
2019-05-10T03:46:39.746Z,99492.28
2019-05-10T03:47:44.201Z,99482.53
2019-05-10T03:48:48.819Z,99489.48
2019-05-10T03:49:53.541Z,99489.72
2019-05-10T03:50:58.187Z,99490.64
2019-05-10T03:52:02.639Z,99488.30
2019-05-10T03:53:07.663Z,99483.72
2019-05-10T03:54:12.472Z,99485.38
2019-05-10T03:55:17.399Z,99487.12
2019-05-10T03:56:21.834Z,99485.28
2019-05-10T03:57:26.479Z,99487.75
2019-05-10T03:58:31.224Z,99489.45
2019-05-10T03:59:35.836Z,99488.62
2019-05-10T04:00:40.279Z,99487.69
2019-05-10T04:01:44.931Z,99490.31
2019-05-10T04:02:49.436Z,99489.42
2019-05-10T04:03:54.063Z,99492.88
2019-05-10T04:04:58.827Z,99495.58
2019-05-10T04:06:03.457Z,99499.01
2019-05-10T04:07:08.272Z,99490.03
2019-05-10T04:08:12.895Z,99491.98
2019-05-10T04:09:17.352Z,99500.50
2019-05-10T04:10:21.971Z,99499.92
2019-05-10T04:11:27.742Z,99503.42
2019-05-10T04:12:32.393Z,99501.66
2019-05-10T04:13:36.839Z,99499.47
2019-05-10T04:14:41.740Z,99502.91
2019-05-10T04:15:47.252Z,99500.11
2019-05-10T04:16:51.903Z,99503.16
2019-05-10T04:17:56.336Z,99507.09
2019-05-10T04:19:00.964Z,99508.69
2019-05-10T04:20:09.356Z,99505.13
2019-05-10T04:21:15.080Z,99511.89
2019-05-10T04:22:19.870Z,99511.44
2019-05-10T04:23:24.498Z,99513.66
2019-05-10T04:24:28.956Z,99519.40
2019-05-10T04:25:33.573Z,99523.45
2019-05-10T04:26:38.029Z,99529.22
2019-05-10T04:27:42.666Z,99521.39
2019-05-10T04:28:47.106Z,99521.75
2019-05-10T04:29:51.740Z,99529.95
2019-05-10T04:30:56.550Z,99535.18
2019-05-10T04:32:01.198Z,99540.03
2019-05-10T04:33:05.632Z,99531.75
2019-05-10T04:34:10.276Z,99529.13
2019-05-10T04:35:14.759Z,99531.75
2019-05-10T04:36:19.387Z,99534.25
2019-05-10T04:37:23.845Z,99532.31
2019-05-10T04:38:28.763Z,99540.11
2019-05-10T04:39:33.206Z,99542.67
2019-05-10T04:40:37.832Z,99539.59
2019-05-10T04:41:42.293Z,99540.42
2019-05-10T04:42:46.933Z,99543.41
2019-05-10T04:43:51.371Z,99546.73
2019-05-10T04:44:55.995Z,99546.22
2019-05-10T04:46:00.437Z,99546.56
2019-05-10T04:47:05.085Z,99552.20
2019-05-10T04:48:09.541Z,99552.03
2019-05-10T04:49:14.173Z,99548.50
2019-05-10T04:50:18.623Z,99551.34
2019-05-10T04:51:23.244Z,99552.22
2019-05-10T04:52:27.720Z,99556.06
2019-05-10T04:53:32.342Z,99560.35
2019-05-10T04:54:36.789Z,99557.76
2019-05-10T04:55:41.406Z,99562.40
2019-05-10T04:56:45.852Z,99566.69
2019-05-10T04:57:51.454Z,99560.84
2019-05-10T04:58:56.033Z,99562.39
2019-05-10T05:00:00.663Z,99567.31
2019-05-10T05:01:05.103Z,99561.08
2019-05-10T05:02:09.735Z,99568.28
2019-05-10T05:03:14.198Z,99566.55
2019-05-10T05:04:18.826Z,99573.06
2019-05-10T05:05:23.715Z,99571.16
2019-05-10T05:06:28.674Z,99573.75
2019-05-10T05:07:33.455Z,99568.34
2019-05-10T05:08:38.076Z,99570.42
2019-05-10T05:09:42.517Z,99567.72
2019-05-10T05:10:47.503Z,99574.50
2019-05-10T05:11:51.941Z,99575.44
2019-05-10T05:12:57.902Z,99576.16
2019-05-10T05:14:02.330Z,99571.76
2019-05-10T05:15:09.451Z,99577.89
2019-05-10T05:16:13.879Z,99582.91
2019-05-10T05:17:18.509Z,99572.12
2019-05-10T05:18:22.959Z,99580.09
2019-05-10T05:19:27.583Z,99580.44
2019-05-10T05:20:32.038Z,99577.80
2019-05-10T05:21:36.644Z,99576.68
2019-05-10T05:22:41.380Z,99583.95
2019-05-10T05:23:46.003Z,99583.09
2019-05-10T05:24:55.257Z,99582.91
2019-05-10T05:25:56.766Z,99586.14
2019-05-10T05:27:01.197Z,99586.03
2019-05-10T05:28:08.283Z,99582.72
2019-05-10T05:29:11.988Z,99581.55
2019-05-10T05:30:17.644Z,99583.28
2019-05-10T05:31:23.169Z,99585.32
2019-05-10T05:32:27.848Z,99583.70
2019-05-10T05:33:32.305Z,99588.18
2019-05-10T05:34:36.933Z,99580.08
2019-05-10T05:35:41.532Z,99589.05
2019-05-10T05:36:47.110Z,99587.13
2019-05-10T05:37:51.577Z,99588.59
2019-05-10T05:38:56.506Z,99592.47
2019-05-10T05:40:00.945Z,99588.40
2019-05-10T05:41:05.562Z,99593.07
2019-05-10T05:42:10.034Z,99594.98
2019-05-10T05:43:14.687Z,99592.68
2019-05-10T05:44:20.369Z,99590.23
2019-05-10T05:45:28.307Z,99588.00
2019-05-10T05:46:31.880Z,99597.55
2019-05-10T05:47:37.675Z,99601.11
2019-05-10T05:48:42.943Z,99595.56
2019-05-10T05:49:47.560Z,99602.47
2019-05-10T05:50:51.999Z,99598.76
2019-05-10T05:51:56.619Z,99596.37
2019-05-10T05:53:01.091Z,99591.09
2019-05-10T05:54:05.763Z,99593.69
2019-05-10T05:55:10.575Z,99598.48
2019-05-10T05:56:15.195Z,99603.02
2019-05-10T05:57:22.247Z,99601.30
2019-05-10T05:58:27.298Z,99598.98
2019-05-10T05:59:32.480Z,99606.98
2019-05-10T06:00:44.077Z,99603.31
2019-05-10T06:01:43.584Z,99602.62
2019-05-10T06:02:48.199Z,99610.99
2019-05-10T06:03:52.657Z,99615.82
2019-05-10T06:04:57.606Z,99618.71
2019-05-10T06:06:02.050Z,99614.38
2019-05-10T06:07:06.985Z,99614.59
2019-05-10T06:08:22.734Z,99623.84
2019-05-10T06:09:17.777Z,99621.10
2019-05-10T06:10:22.213Z,99626.80
2019-05-10T06:11:29.757Z,99625.61
2019-05-10T06:12:32.961Z,99622.51
2019-05-10T06:13:38.023Z,99622.88
2019-05-10T06:14:43.084Z,99622.72
2019-05-10T06:15:48.837Z,99622.59
2019-05-10T06:16:53.270Z,99629.24
2019-05-10T06:18:03.375Z,99625.52
2019-05-10T06:19:04.057Z,99628.70
2019-05-10T06:20:09.118Z,99622.14
2019-05-10T06:21:17.762Z,99626.47
2019-05-10T06:22:20.171Z,99628.02
2019-05-10T06:23:29.146Z,99629.15
2019-05-10T06:24:34.368Z,99633.70
2019-05-10T06:25:40.007Z,99632.12
2019-05-10T06:26:44.318Z,99635.05
2019-05-10T06:27:48.774Z,99629.28
2019-05-10T06:29:04.243Z,99633.30
2019-05-10T06:29:59.547Z,99638.91
2019-05-10T06:31:04.478Z,99641.70
2019-05-10T06:32:08.914Z,99640.55
2019-05-10T06:33:13.584Z,99637.80
2019-05-10T06:34:19.111Z,99642.63
2019-05-10T06:35:24.709Z,99643.41
2019-05-10T06:36:29.518Z,99643.34
2019-05-10T06:37:34.525Z,99643.10
2019-05-10T06:38:39.107Z,99644.54
2019-05-10T06:39:43.823Z,99648.00
2019-05-10T06:40:48.323Z,99648.55
2019-05-10T06:41:56.131Z,99642.55
2019-05-10T06:43:00.764Z,99647.76
2019-05-10T06:44:05.483Z,99647.97
2019-05-10T06:45:14.819Z,99651.70
2019-05-10T06:46:17.243Z,99648.22
2019-05-10T06:47:22.132Z,99653.00
2019-05-10T06:48:32.947Z,99650.58
2019-05-10T06:49:33.185Z,99643.17
2019-05-10T06:50:37.806Z,99646.20
2019-05-10T06:51:48.303Z,99647.70
2019-05-10T06:52:51.856Z,99646.75
2019-05-10T06:53:55.308Z,99647.27
2019-05-10T06:54:59.978Z,99645.59
2019-05-10T06:56:04.488Z,99650.97
2019-05-10T06:57:11.195Z,99646.75
2019-05-10T06:58:15.331Z,99640.72
2019-05-10T06:59:24.898Z,99643.34
2019-05-10T07:00:26.141Z,99644.45
2019-05-10T07:01:30.938Z,99644.98
2019-05-10T07:02:35.385Z,99647.09
2019-05-10T07:03:40.306Z,99650.50
2019-05-10T07:04:47.839Z,99651.52
2019-05-10T07:05:52.458Z,99648.91
2019-05-10T07:06:57.184Z,99657.16
2019-05-10T07:08:13.459Z,99651.02
2019-05-10T07:09:08.300Z,99659.98
2019-05-10T07:10:19.005Z,99656.70
2019-05-10T07:11:19.919Z,99658.13
2019-05-10T07:12:24.540Z,99656.48
2019-05-10T07:13:28.974Z,99658.67
2019-05-10T07:14:33.624Z,99661.88
2019-05-10T07:15:41.916Z,99661.06
2019-05-10T07:16:44.384Z,99652.09
2019-05-10T07:17:48.829Z,99658.36
2019-05-10T07:18:54.734Z,99658.84
2019-05-10T07:20:00.889Z,99656.63
2019-05-10T07:21:06.729Z,99652.38
2019-05-10T07:22:12.501Z,99652.77
2019-05-10T07:23:17.128Z,99654.44
2019-05-10T07:24:24.875Z,99658.79
2019-05-10T07:25:27.915Z,99657.91
2019-05-10T07:26:32.668Z,99653.27
2019-05-10T07:27:38.668Z,99657.06
2019-05-10T07:28:43.304Z,99661.07
2019-05-10T07:29:47.942Z,99657.16
2019-05-10T07:30:53.336Z,99663.90
2019-05-10T07:31:57.962Z,99662.73
2019-05-10T07:33:02.401Z,99659.17
2019-05-10T07:34:09.659Z,99665.11
2019-05-10T07:35:13.375Z,99658.72
2019-05-10T07:36:20.789Z,99660.86
2019-05-10T07:37:24.182Z,99661.17
2019-05-10T07:38:30.813Z,99662.64
2019-05-10T07:39:36.245Z,99661.77
2019-05-10T07:40:41.208Z,99667.28
2019-05-10T07:41:45.705Z,99664.64
2019-05-10T07:42:50.339Z,99670.02
2019-05-10T07:44:00.900Z,99669.92
2019-05-10T07:45:01.122Z,99666.67
2019-05-10T07:46:06.822Z,99669.36
2019-05-10T07:47:12.255Z,99671.52
2019-05-10T07:48:16.692Z,99673.15
2019-05-10T07:49:23.963Z,99676.30
2019-05-10T07:50:27.847Z,99679.98
2019-05-10T07:51:32.796Z,99680.31
2019-05-10T07:52:43.320Z,99684.03
2019-05-10T07:53:43.567Z,99683.67
2019-05-10T07:54:48.091Z,99686.86
2019-05-10T07:55:53.031Z,99687.55
2019-05-10T07:56:57.738Z,99683.59
2019-05-10T07:58:04.912Z,99694.46
2019-05-10T07:59:08.493Z,99689.66
2019-05-10T08:00:14.470Z,99694.98
2019-05-10T08:01:30.458Z,99689.75
2019-05-10T08:02:25.510Z,99701.19
2019-05-10T08:03:29.962Z,99697.02
2019-05-10T08:04:34.567Z,99702.13
2019-05-10T08:05:39.356Z,99701.00
2019-05-10T08:06:47.786Z,99713.05
2019-05-10T08:07:50.097Z,99712.47
2019-05-10T08:08:55.430Z,99713.81
2019-05-10T08:10:04.610Z,99715.31
2019-05-10T08:11:08.650Z,99713.63
2019-05-10T08:12:13.185Z,99716.47
2019-05-10T08:13:23.384Z,99722.19
2019-05-10T08:14:25.451Z,99716.64
2019-05-10T08:15:34.565Z,99721.17
2019-05-10T08:16:38.601Z,99717.75
2019-05-10T08:17:45.524Z,99719.54
2019-05-10T08:18:49.908Z,99720.66
2019-05-10T08:19:54.882Z,99722.17
2019-05-10T08:21:02.469Z,99721.77
2019-05-10T08:22:07.504Z,99719.48
2019-05-10T08:23:13.082Z,99722.95
2019-05-10T08:24:17.810Z,99725.60
2019-05-10T08:25:23.054Z,99718.17
2019-05-10T08:26:27.956Z,99719.70
2019-05-10T08:27:32.532Z,99725.27
2019-05-10T08:28:39.820Z,99727.03
2019-05-10T08:29:43.233Z,99727.06
2019-05-10T08:30:57.779Z,99731.17
2019-05-10T08:31:56.062Z,99730.45
2019-05-10T08:33:09.109Z,99733.46
2019-05-10T08:34:07.391Z,99731.86
2019-05-10T08:35:17.005Z,99727.45
2019-05-10T08:36:18.336Z,99729.46
2019-05-10T08:37:31.034Z,99735.52
2019-05-10T08:38:31.788Z,99732.10
2019-05-10T08:39:45.309Z,99734.95
2019-05-10T08:40:42.863Z,99738.94
2019-05-10T08:42:01.356Z,99741.47
2019-05-10T08:43:03.261Z,99738.03
2019-05-10T08:44:04.591Z,99737.27
2019-05-10T08:45:08.984Z,99732.73
2019-05-10T08:46:14.084Z,99742.13
2019-05-10T08:47:25.107Z,99739.78
2019-05-10T08:48:27.595Z,99741.91
2019-05-10T08:49:42.457Z,99745.93
2019-05-10T08:50:49.279Z,99745.59
2019-05-10T08:51:49.126Z,99752.92
2019-05-10T08:52:54.184Z,99749.87
2019-05-10T08:54:01.766Z,99751.73
2019-05-10T08:55:07.850Z,99755.05
2019-05-10T08:56:20.886Z,99753.11
2019-05-10T08:57:19.005Z,99746.17
2019-05-10T08:58:31.276Z,99749.70
2019-05-10T08:59:33.914Z,99751.67
2019-05-10T09:00:53.294Z,99752.00
2019-05-10T09:01:50.506Z,99755.88
2019-05-10T09:02:52.177Z,99751.48
2019-05-10T09:04:02.006Z,99754.69
2019-05-10T09:05:05.209Z,99752.63
2019-05-10T09:06:14.213Z,99757.55
2019-05-10T09:07:16.042Z,99763.42
2019-05-10T09:08:24.796Z,99762.13
2019-05-10T09:09:28.037Z,99764.86
2019-05-10T09:10:32.699Z,99765.34
2019-05-10T09:11:37.448Z,99762.42
2019-05-10T09:12:51.115Z,99759.53
2019-05-10T09:13:48.551Z,99752.53
2019-05-10T09:14:57.311Z,99760.83
2019-05-10T09:16:02.245Z,99757.13
2019-05-10T09:17:06.528Z,99757.41
2019-05-10T09:18:12.806Z,99748.96
2019-05-10T09:19:18.939Z,99753.05
2019-05-10T09:20:26.380Z,99764.63
2019-05-10T09:21:32.169Z,99759.72
2019-05-10T09:22:38.616Z,99762.88
2019-05-10T09:23:42.815Z,99762.31
2019-05-10T09:24:49.085Z,99766.84
2019-05-10T09:25:53.996Z,99766.52
2019-05-10T09:26:58.460Z,99765.06
2019-05-10T09:28:11.739Z,99769.83
2019-05-10T09:29:09.215Z,99769.86
2019-05-10T09:30:18.501Z,99765.02
2019-05-10T09:31:25.553Z,99765.16
2019-05-10T09:32:29.383Z,99758.95
2019-05-10T09:33:34.372Z,99763.20
2019-05-10T09:34:39.345Z,99760.52
2019-05-10T09:35:47.537Z,99767.52
2019-05-10T09:36:53.009Z,99768.01
2019-05-10T09:37:58.525Z,99768.75
2019-05-10T09:39:04.123Z,99766.15
2019-05-10T09:40:09.975Z,99775.80
2019-05-10T09:41:15.227Z,99774.93
2019-05-10T09:42:26.843Z,99778.34
2019-05-10T09:43:27.006Z,99778.14
2019-05-10T09:44:32.992Z,99773.44
2019-05-10T09:45:37.771Z,99777.97
2019-05-10T09:46:42.436Z,99774.14
2019-05-10T09:47:47.928Z,99777.63
2019-05-10T09:48:54.650Z,99772.11
2019-05-10T09:49:59.109Z,99778.06
2019-05-10T09:51:04.486Z,99767.64
2019-05-10T09:52:12.720Z,99774.89
2019-05-10T09:53:25.395Z,99771.63
2019-05-10T09:54:28.589Z,99777.50
2019-05-10T09:55:29.710Z,99771.55
2019-05-10T09:56:39.634Z,99775.69
2019-05-10T09:57:40.795Z,99774.92
2019-05-10T09:58:45.408Z,99777.23
2019-05-10T09:59:49.868Z,99778.82
2019-05-10T10:01:10.309Z,99781.42
2019-05-10T10:02:05.025Z,99779.41
2019-05-10T10:03:08.224Z,99774.52
2019-05-10T10:04:13.343Z,99770.54
2019-05-10T10:05:18.831Z,99778.04
2019-05-10T10:06:23.273Z,99779.28
2019-05-10T10:07:33.550Z,99777.19
2019-05-10T10:08:38.274Z,99774.64
2019-05-10T10:09:44.862Z,99767.70
2019-05-10T10:10:48.482Z,99772.06
2019-05-10T10:11:57.671Z,99776.45
2019-05-10T10:13:08.435Z,99776.80
2019-05-10T10:14:07.572Z,99774.13
2019-05-10T10:15:18.818Z,99765.91
2019-05-10T10:16:19.393Z,99775.44
2019-05-10T10:17:24.147Z,99771.59
2019-05-10T10:18:28.957Z,99776.23
2019-05-10T10:19:33.421Z,99776.34
2019-05-10T10:20:43.512Z,99773.95
2019-05-10T10:21:44.548Z,99778.11
2019-05-10T10:22:54.327Z,99782.23
2019-05-10T10:24:00.013Z,99784.83
2019-05-10T10:25:01.964Z,99785.65
2019-05-10T10:26:07.322Z,99786.30
2019-05-10T10:27:13.386Z,99794.91
2019-05-10T10:28:19.935Z,99785.95
2019-05-10T10:29:28.627Z,99794.11
2019-05-10T10:30:31.496Z,99795.43
2019-05-10T10:31:48.471Z,99788.19
2019-05-10T10:32:44.607Z,99791.61
2019-05-10T10:33:59.670Z,99797.13
2019-05-10T10:34:57.909Z,99788.22
2019-05-10T10:36:10.005Z,99814.52
2019-05-10T10:37:08.837Z,99813.14
2019-05-10T10:38:13.586Z,99814.19
2019-05-10T10:39:22.981Z,99822.20
2019-05-10T10:40:24.651Z,99824.88
2019-05-10T10:41:31.808Z,99829.77
2019-05-10T10:42:37.774Z,99833.30
2019-05-10T10:43:41.666Z,99841.31
2019-05-10T10:44:48.313Z,99849.13
2019-05-10T10:45:52.577Z,99849.21
2019-05-10T10:46:58.219Z,99852.09
2019-05-10T10:48:08.511Z,99854.66
2019-05-10T10:49:10.545Z,99859.08
2019-05-10T10:50:17.265Z,99860.11
2019-05-10T10:51:21.497Z,99859.17
2019-05-10T10:52:27.833Z,99863.56
2019-05-10T10:53:32.526Z,99860.05
2019-05-10T10:54:39.793Z,99855.52
2019-05-10T10:55:46.106Z,99857.58
2019-05-10T10:56:49.574Z,99852.16
2019-05-10T10:57:54.206Z,99851.91
2019-05-10T10:58:58.673Z,99850.19
2019-05-10T11:00:03.869Z,99852.00
2019-05-10T11:01:19.979Z,99850.00
2019-05-10T11:02:31.404Z,99853.57
2019-05-10T11:03:23.846Z,99851.06
2019-05-10T11:04:28.315Z,99848.11
2019-05-10T11:05:32.757Z,99853.91
2019-05-10T11:06:37.396Z,99843.77
2019-05-10T11:07:47.206Z,99853.72
2019-05-10T11:08:48.547Z,99852.73
2019-05-10T11:10:04.986Z,99854.67
2019-05-10T11:11:00.535Z,99850.91
2019-05-10T11:12:05.471Z,99854.08
2019-05-10T11:13:14.015Z,99855.77
2019-05-10T11:14:16.251Z,99845.46
2019-05-10T11:15:26.108Z,99842.58
2019-05-10T11:16:27.619Z,99850.60
2019-05-10T11:17:32.386Z,99847.41
2019-05-10T11:18:36.896Z,99847.58
2019-05-10T11:19:41.859Z,99849.37
2019-05-10T11:20:49.503Z,99842.09
2019-05-10T11:21:53.082Z,99849.94
2019-05-10T11:22:59.482Z,99848.00
2019-05-10T11:24:04.193Z,99848.31
2019-05-10T11:25:10.391Z,99848.74
2019-05-10T11:26:15.459Z,99850.73
2019-05-10T11:27:20.016Z,99852.86
2019-05-10T11:28:24.651Z,99847.81
2019-05-10T11:29:30.875Z,99851.94
2019-05-10T11:30:35.629Z,99847.61
2019-05-10T11:31:41.354Z,99853.62
2019-05-10T11:32:46.490Z,99846.10
2019-05-10T11:33:56.024Z,99847.83
2019-05-10T11:34:57.597Z,99847.38
2019-05-10T11:36:04.108Z,99842.23
2019-05-10T11:37:08.383Z,99850.44
2019-05-10T11:38:16.252Z,99850.69
2019-05-10T11:39:25.974Z,99857.61
2019-05-10T11:40:31.037Z,99856.17
2019-05-10T11:41:31.944Z,99858.19
2019-05-10T11:42:37.452Z,99869.94
2019-05-10T11:43:42.799Z,99867.18
2019-05-10T11:44:50.910Z,99855.05
2019-05-10T11:45:54.559Z,99858.78
2019-05-10T11:47:01.354Z,99860.63
2019-05-10T11:48:05.608Z,99857.94
2019-05-10T11:49:10.928Z,99856.14
2019-05-10T11:50:28.892Z,99852.01
2019-05-10T11:51:23.343Z,99852.34
2019-05-10T11:52:29.120Z,99856.67
2019-05-10T11:53:34.118Z,99859.11
2019-05-10T11:54:38.782Z,99851.70
2019-05-10T11:55:43.700Z,99862.78
2019-05-10T11:56:48.324Z,99860.97
2019-05-10T11:59:02.151Z,99854.72
2019-05-10T12:00:14.284Z,99862.97
2019-05-10T12:01:18.990Z,99857.75
2019-05-10T12:02:37.005Z,99863.56
2019-05-10T12:03:26.178Z,99857.75
2019-05-10T12:04:38.960Z,99862.80
2019-05-10T12:05:37.317Z,99864.76
2019-05-10T12:06:49.923Z,99863.03
2019-05-10T12:07:51.797Z,99860.14
2019-05-10T12:09:01.202Z,99859.58
2019-05-10T12:11:21.083Z,99870.27
2019-05-10T12:12:14.088Z,99870.41
2019-05-10T12:13:24.358Z,99870.58
2019-05-10T12:14:25.241Z,99870.45
2019-05-10T12:15:31.825Z,99872.60
2019-05-10T12:16:35.976Z,99867.02
2019-05-10T12:17:46.345Z,99873.41
2019-05-10T12:19:05.511Z,99873.98
2019-05-10T12:19:56.289Z,99869.64
2019-05-10T12:21:08.921Z,99872.02
2019-05-10T12:22:06.001Z,99869.27
2019-05-10T12:23:13.484Z,99869.44
2019-05-10T12:25:42.716Z,99872.21
2019-05-10T12:26:16.688Z,99857.10
2019-05-10T12:26:19.671Z,99877.25
2019-05-10T12:26:36.094Z,99862.09
2019-05-10T12:27:45.209Z,99871.16
2019-05-10T12:28:41.678Z,99871.73
2019-05-10T12:29:51.323Z,99880.59
2019-05-10T12:30:52.457Z,99879.63
2019-05-10T12:31:57.220Z,99882.54
2019-05-10T12:33:08.048Z,99882.41
2019-05-10T12:34:14.278Z,99889.31
2019-05-10T12:35:15.577Z,99885.02
2019-05-10T12:36:25.581Z,99879.05
2019-05-10T12:37:27.297Z,99884.45
2019-05-10T12:38:35.870Z,99882.06
2019-05-10T12:39:39.029Z,99890.36
2019-05-10T12:40:45.865Z,99882.59
2019-05-10T12:41:52.887Z,99874.78
2019-05-10T12:42:56.140Z,99883.20
2019-05-10T12:44:04.152Z,99880.35
2019-05-10T12:45:08.070Z,99881.11
2019-05-10T12:46:12.494Z,99881.31
2019-05-10T12:47:17.189Z,99881.56
2019-05-10T12:48:23.521Z,99884.29
2019-05-10T12:49:28.266Z,99894.17